sensor_id;sensor_type;location;lat;lon;timestamp;temperature;humidity
11304;DHT22;5707;49.588;12.148;2023-01-01T00:00:08;9.20;99.90
11304;DHT22;5707;49.588;12.148;2023-01-01T00:02:34;9.20;99.90
11304;DHT22;5707;49.588;12.148;2023-01-01T00:05:00;9.10;99.90
11304;DHT22;5707;49.588;12.148;2023-01-01T00:07:25;9.00;99.90
11304;DHT22;5707;49.588;12.148;2023-01-01T00:09:51;9.00;99.90
11304;DHT22;5707;49.588;12.148;2023-01-01T00:12:35;9.00;99.90
11304;DHT22;5707;49.588;12.148;2023-01-01T00:15:01;8.90;99.90
11304;DHT22;5707;49.588;12.148;2023-01-01T00:17:28;8.90;99.90
11304;DHT22;5707;49.588;12.148;2023-01-01T00:19:53;8.80;99.90
11304;DHT22;5707;49.588;12.148;2023-01-01T00:22:19;8.90;99.90
11304;DHT22;5707;49.588;12.148;2023-01-01T00:24:45;9.00;99.90
11304;DHT22;5707;49.588;12.148;2023-01-01T00:27:10;9.00;99.90
11304;DHT22;5707;49.588;12.148;2023-01-01T00:29:36;9.10;99.90
11304;DHT22;5707;49.588;12.148;2023-01-01T00:32:01;9.10;99.90
11304;DHT22;5707;49.588;12.148;2023-01-01T00:34:27;9.10;99.90
11304;DHT22;5707;49.588;12.148;2023-01-01T00:36:53;9.10;99.90
11304;DHT22;5707;49.588;12.148;2023-01-01T00:39:18;9.10;99.90
11304;DHT22;5707;49.588;12.148;2023-01-01T00:41:44;9.10;99.90
11304;DHT22;5707;49.588;12.148;2023-01-01T00:44:09;9.10;99.90
11304;DHT22;5707;49.588;12.148;2023-01-01T00:46:35;9.10;99.90
11304;DHT22;5707;49.588;12.148;2023-01-01T00:49:00;9.10;99.90
11304;DHT22;5707;49.588;12.148;2023-01-01T00:51:26;9.10;99.90
11304;DHT22;5707;49.588;12.148;2023-01-01T00:53:52;9.10;99.90
11304;DHT22;5707;49.588;12.148;2023-01-01T00:56:17;9.00;99.90
11304;DHT22;5707;49.588;12.148;2023-01-01T00:58:43;9.10;99.90
11304;DHT22;5707;49.588;12.148;2023-01-01T01:01:09;9.10;99.90
11304;DHT22;5707;49.588;12.148;2023-01-01T01:03:37;9.10;99.90
11304;DHT22;5707;49.588;12.148;2023-01-01T01:08:30;9.10;99.90
11304;DHT22;5707;49.588;12.148;2023-01-01T01:13:35;9.10;99.90
11304;DHT22;5707;49.588;12.148;2023-01-01T01:16:10;9.10;99.90
11304;DHT22;5707;49.588;12.148;2023-01-01T01:18:36;9.10;99.90
11304;DHT22;5707;49.588;12.148;2023-01-01T01:21:02;9.10;99.90
11304;DHT22;5707;49.588;12.148;2023-01-01T01:23:27;9.10;99.90
11304;DHT22;5707;49.588;12.148;2023-01-01T01:25:53;9.00;99.90
11304;DHT22;5707;49.588;12.148;2023-01-01T01:28:19;9.10;99.90
11304;DHT22;5707;49.588;12.148;2023-01-01T01:30:44;9.10;99.90
11304;DHT22;5707;49.588;12.148;2023-01-01T01:33:10;9.00;99.90
11304;DHT22;5707;49.588;12.148;2023-01-01T01:35:35;9.00;99.90
11304;DHT22;5707;49.588;12.148;2023-01-01T01:38:01;8.90;99.90
11304;DHT22;5707;49.588;12.148;2023-01-01T01:40:27;8.80;99.90
11304;DHT22;5707;49.588;12.148;2023-01-01T01:42:52;8.80;99.90
11304;DHT22;5707;49.588;12.148;2023-01-01T01:45:18;8.80;99.90
11304;DHT22;5707;49.588;12.148;2023-01-01T01:47:53;8.80;99.90
11304;DHT22;5707;49.588;12.148;2023-01-01T01:50:31;8.80;99.90
11304;DHT22;5707;49.588;12.148;2023-01-01T01:53:31;8.80;99.90
11304;DHT22;5707;49.588;12.148;2023-01-01T01:56:05;8.70;99.90
11304;DHT22;5707;49.588;12.148;2023-01-01T01:58:31;8.70;99.90
11304;DHT22;5707;49.588;12.148;2023-01-01T02:00:58;8.70;99.90
11304;DHT22;5707;49.588;12.148;2023-01-01T02:05:53;8.70;99.90
11304;DHT22;5707;49.588;12.148;2023-01-01T02:08:19;8.70;99.90
11304;DHT22;5707;49.588;12.148;2023-01-01T02:10:46;8.70;99.90
11304;DHT22;5707;49.588;12.148;2023-01-01T02:13:11;8.70;99.90
11304;DHT22;5707;49.588;12.148;2023-01-01T02:15:51;8.60;99.90
11304;DHT22;5707;49.588;12.148;2023-01-01T02:18:25;8.60;99.90
11304;DHT22;5707;49.588;12.148;2023-01-01T02:21:01;8.50;99.90
11304;DHT22;5707;49.588;12.148;2023-01-01T02:23:41;8.50;99.90
11304;DHT22;5707;49.588;12.148;2023-01-01T02:26:45;8.60;99.90
11304;DHT22;5707;49.588;12.148;2023-01-01T02:32:13;8.50;99.90
11304;DHT22;5707;49.588;12.148;2023-01-01T02:34:48;8.50;99.90
11304;DHT22;5707;49.588;12.148;2023-01-01T02:37:17;8.60;99.90
11304;DHT22;5707;49.588;12.148;2023-01-01T02:39:56;8.60;99.90
11304;DHT22;5707;49.588;12.148;2023-01-01T02:42:25;8.60;99.90
11304;DHT22;5707;49.588;12.148;2023-01-01T02:44:54;8.60;99.90
11304;DHT22;5707;49.588;12.148;2023-01-01T02:47:20;8.60;99.90
11304;DHT22;5707;49.588;12.148;2023-01-01T02:55:35;8.60;99.90
11304;DHT22;5707;49.588;12.148;2023-01-01T03:01:07;8.60;99.90
11304;DHT22;5707;49.588;12.148;2023-01-01T03:03:37;8.50;99.90
11304;DHT22;5707;49.588;12.148;2023-01-01T03:06:15;8.50;99.90
11304;DHT22;5707;49.588;12.148;2023-01-01T03:11:31;8.40;99.90
11304;DHT22;5707;49.588;12.148;2023-01-01T03:14:07;8.30;99.90
11304;DHT22;5707;49.588;12.148;2023-01-01T03:19:25;8.30;99.90
11304;DHT22;5707;49.588;12.148;2023-01-01T03:21:55;8.30;99.90
11304;DHT22;5707;49.588;12.148;2023-01-01T03:24:26;8.20;99.90
11304;DHT22;5707;49.588;12.148;2023-01-01T03:26:57;8.20;99.90
11304;DHT22;5707;49.588;12.148;2023-01-01T03:29:27;8.20;99.90
11304;DHT22;5707;49.588;12.148;2023-01-01T03:31:56;8.10;99.90
11304;DHT22;5707;49.588;12.148;2023-01-01T03:34:29;8.20;99.90
11304;DHT22;5707;49.588;12.148;2023-01-01T03:36:58;8.20;99.90
11304;DHT22;5707;49.588;12.148;2023-01-01T03:39:34;8.20;99.90
11304;DHT22;5707;49.588;12.148;2023-01-01T03:42:36;8.20;99.90
11304;DHT22;5707;49.588;12.148;2023-01-01T03:45:19;8.20;99.90
11304;DHT22;5707;49.588;12.148;2023-01-01T03:47:46;8.20;99.90
11304;DHT22;5707;49.588;12.148;2023-01-01T03:50:12;8.20;99.90
11304;DHT22;5707;49.588;12.148;2023-01-01T03:53:01;8.30;99.90
11304;DHT22;5707;49.588;12.148;2023-01-01T03:55:34;8.20;99.90
11304;DHT22;5707;49.588;12.148;2023-01-01T03:58:12;8.10;99.90
11304;DHT22;5707;49.588;12.148;2023-01-01T04:01:01;8.00;99.90
11304;DHT22;5707;49.588;12.148;2023-01-01T04:03:30;8.00;99.90
11304;DHT22;5707;49.588;12.148;2023-01-01T04:05:57;8.00;99.90
11304;DHT22;5707;49.588;12.148;2023-01-01T04:08:22;8.00;99.90
11304;DHT22;5707;49.588;12.148;2023-01-01T04:10:52;8.00;99.90
11304;DHT22;5707;49.588;12.148;2023-01-01T04:13:19;8.00;99.90
11304;DHT22;5707;49.588;12.148;2023-01-01T04:15:45;8.00;99.90
11304;DHT22;5707;49.588;12.148;2023-01-01T04:18:11;7.90;99.90
11304;DHT22;5707;49.588;12.148;2023-01-01T04:20:36;7.90;99.90
11304;DHT22;5707;49.588;12.148;2023-01-01T04:23:03;7.80;99.90
11304;DHT22;5707;49.588;12.148;2023-01-01T04:25:28;7.70;99.90
11304;DHT22;5707;49.588;12.148;2023-01-01T04:27:54;7.70;99.90
11304;DHT22;5707;49.588;12.148;2023-01-01T04:30:20;7.70;99.90
11304;DHT22;5707;49.588;12.148;2023-01-01T04:32:46;7.60;99.90
11304;DHT22;5707;49.588;12.148;2023-01-01T04:35:13;7.60;99.90
11304;DHT22;5707;49.588;12.148;2023-01-01T04:37:43;7.50;99.90
11304;DHT22;5707;49.588;12.148;2023-01-01T04:40:10;7.50;99.90
11304;DHT22;5707;49.588;12.148;2023-01-01T04:42:36;7.60;99.90
11304;DHT22;5707;49.588;12.148;2023-01-01T04:45:02;7.60;99.90
11304;DHT22;5707;49.588;12.148;2023-01-01T04:47:28;7.50;99.90
11304;DHT22;5707;49.588;12.148;2023-01-01T04:49:54;7.50;99.90
11304;DHT22;5707;49.588;12.148;2023-01-01T04:52:20;7.50;99.90
11304;DHT22;5707;49.588;12.148;2023-01-01T04:54:46;7.50;99.90
11304;DHT22;5707;49.588;12.148;2023-01-01T04:57:11;7.50;99.90
11304;DHT22;5707;49.588;12.148;2023-01-01T04:59:37;7.50;99.90
11304;DHT22;5707;49.588;12.148;2023-01-01T05:02:02;7.50;99.90
11304;DHT22;5707;49.588;12.148;2023-01-01T05:04:28;7.40;99.90
11304;DHT22;5707;49.588;12.148;2023-01-01T05:06:54;7.40;99.90
11304;DHT22;5707;49.588;12.148;2023-01-01T05:09:19;7.40;99.90
11304;DHT22;5707;49.588;12.148;2023-01-01T05:11:45;7.50;99.90
11304;DHT22;5707;49.588;12.148;2023-01-01T05:14:11;7.50;99.90
11304;DHT22;5707;49.588;12.148;2023-01-01T05:16:38;7.60;99.90
11304;DHT22;5707;49.588;12.148;2023-01-01T05:19:04;7.70;99.90
11304;DHT22;5707;49.588;12.148;2023-01-01T05:21:33;7.70;99.90
11304;DHT22;5707;49.588;12.148;2023-01-01T05:24:01;7.70;99.90
11304;DHT22;5707;49.588;12.148;2023-01-01T05:26:32;7.70;99.90
11304;DHT22;5707;49.588;12.148;2023-01-01T05:28:58;7.70;99.90
11304;DHT22;5707;49.588;12.148;2023-01-01T05:31:32;7.70;99.90
11304;DHT22;5707;49.588;12.148;2023-01-01T05:33:58;7.70;99.90
11304;DHT22;5707;49.588;12.148;2023-01-01T05:36:27;7.70;99.90
11304;DHT22;5707;49.588;12.148;2023-01-01T05:38:53;7.70;99.90
11304;DHT22;5707;49.588;12.148;2023-01-01T05:41:20;7.60;99.90
11304;DHT22;5707;49.588;12.148;2023-01-01T05:43:47;7.50;99.90
11304;DHT22;5707;49.588;12.148;2023-01-01T05:46:15;7.50;99.90
11304;DHT22;5707;49.588;12.148;2023-01-01T05:48:42;7.50;99.90
11304;DHT22;5707;49.588;12.148;2023-01-01T05:51:15;7.50;99.90
11304;DHT22;5707;49.588;12.148;2023-01-01T05:53:41;7.40;99.90
11304;DHT22;5707;49.588;12.148;2023-01-01T05:56:09;7.30;99.90
11304;DHT22;5707;49.588;12.148;2023-01-01T05:58:35;7.40;99.90
11304;DHT22;5707;49.588;12.148;2023-01-01T06:01:16;7.40;99.90
11304;DHT22;5707;49.588;12.148;2023-01-01T06:03:42;7.40;99.90
11304;DHT22;5707;49.588;12.148;2023-01-01T06:06:10;7.50;99.90
11304;DHT22;5707;49.588;12.148;2023-01-01T06:08:37;7.40;99.90
11304;DHT22;5707;49.588;12.148;2023-01-01T06:11:04;7.40;99.90
11304;DHT22;5707;49.588;12.148;2023-01-01T06:13:31;7.40;99.90
11304;DHT22;5707;49.588;12.148;2023-01-01T06:15:58;7.40;99.90
11304;DHT22;5707;49.588;12.148;2023-01-01T06:18:25;7.30;99.90
11304;DHT22;5707;49.588;12.148;2023-01-01T06:20:51;7.40;99.90
11304;DHT22;5707;49.588;12.148;2023-01-01T06:23:17;7.40;99.90
11304;DHT22;5707;49.588;12.148;2023-01-01T06:25:43;7.40;99.90
11304;DHT22;5707;49.588;12.148;2023-01-01T06:28:09;7.50;99.90
11304;DHT22;5707;49.588;12.148;2023-01-01T06:30:35;7.50;99.90
11304;DHT22;5707;49.588;12.148;2023-01-01T06:33:02;7.50;99.90
11304;DHT22;5707;49.588;12.148;2023-01-01T06:35:28;7.50;99.90
11304;DHT22;5707;49.588;12.148;2023-01-01T06:37:53;7.50;99.90
11304;DHT22;5707;49.588;12.148;2023-01-01T06:40:19;7.50;99.90
11304;DHT22;5707;49.588;12.148;2023-01-01T06:42:45;7.40;99.90
11304;DHT22;5707;49.588;12.148;2023-01-01T06:45:10;7.40;99.90
11304;DHT22;5707;49.588;12.148;2023-01-01T06:47:37;7.40;99.90
11304;DHT22;5707;49.588;12.148;2023-01-01T06:50:03;7.40;99.90
11304;DHT22;5707;49.588;12.148;2023-01-01T06:52:29;7.50;99.90
11304;DHT22;5707;49.588;12.148;2023-01-01T06:54:54;7.40;99.90
11304;DHT22;5707;49.588;12.148;2023-01-01T06:57:20;7.40;99.90
11304;DHT22;5707;49.588;12.148;2023-01-01T06:59:46;7.40;99.90
11304;DHT22;5707;49.588;12.148;2023-01-01T07:02:11;7.50;99.90
11304;DHT22;5707;49.588;12.148;2023-01-01T07:04:37;7.50;99.90
11304;DHT22;5707;49.588;12.148;2023-01-01T07:07:03;7.50;99.90
11304;DHT22;5707;49.588;12.148;2023-01-01T07:09:28;7.60;99.90
11304;DHT22;5707;49.588;12.148;2023-01-01T07:11:54;7.50;99.90
11304;DHT22;5707;49.588;12.148;2023-01-01T07:14:20;7.40;99.90
11304;DHT22;5707;49.588;12.148;2023-01-01T07:16:45;7.40;99.90
11304;DHT22;5707;49.588;12.148;2023-01-01T07:19:11;7.40;99.90
11304;DHT22;5707;49.588;12.148;2023-01-01T07:21:40;7.40;99.90
11304;DHT22;5707;49.588;12.148;2023-01-01T07:24:09;7.40;99.90
11304;DHT22;5707;49.588;12.148;2023-01-01T07:26:35;7.40;99.90
11304;DHT22;5707;49.588;12.148;2023-01-01T07:29:01;7.40;99.90
11304;DHT22;5707;49.588;12.148;2023-01-01T07:31:26;7.40;99.90
11304;DHT22;5707;49.588;12.148;2023-01-01T07:33:52;7.40;99.90
11304;DHT22;5707;49.588;12.148;2023-01-01T07:36:17;7.50;99.90
11304;DHT22;5707;49.588;12.148;2023-01-01T07:38:43;7.60;99.90
11304;DHT22;5707;49.588;12.148;2023-01-01T07:41:08;7.60;99.90
11304;DHT22;5707;49.588;12.148;2023-01-01T07:43:34;7.60;99.90
11304;DHT22;5707;49.588;12.148;2023-01-01T07:46:00;7.60;99.90
11304;DHT22;5707;49.588;12.148;2023-01-01T07:48:26;7.60;99.90
11304;DHT22;5707;49.588;12.148;2023-01-01T07:50:51;7.60;99.90
11304;DHT22;5707;49.588;12.148;2023-01-01T07:53:17;7.60;99.90
11304;DHT22;5707;49.588;12.148;2023-01-01T07:55:42;7.60;99.90
11304;DHT22;5707;49.588;12.148;2023-01-01T07:58:10;7.70;99.90
11304;DHT22;5707;49.588;12.148;2023-01-01T08:00:36;7.70;99.90
11304;DHT22;5707;49.588;12.148;2023-01-01T08:03:01;7.80;99.90
11304;DHT22;5707;49.588;12.148;2023-01-01T08:05:27;7.80;99.90
11304;DHT22;5707;49.588;12.148;2023-01-01T08:07:53;7.90;99.90
11304;DHT22;5707;49.588;12.148;2023-01-01T08:10:19;7.90;99.90
11304;DHT22;5707;49.588;12.148;2023-01-01T08:12:45;8.00;99.90
11304;DHT22;5707;49.588;12.148;2023-01-01T08:15:11;8.00;99.90
11304;DHT22;5707;49.588;12.148;2023-01-01T08:17:37;8.20;99.90
11304;DHT22;5707;49.588;12.148;2023-01-01T08:20:03;8.30;99.90
11304;DHT22;5707;49.588;12.148;2023-01-01T08:22:29;8.40;99.90
11304;DHT22;5707;49.588;12.148;2023-01-01T08:24:55;8.50;99.90
11304;DHT22;5707;49.588;12.148;2023-01-01T08:27:20;8.60;99.90
11304;DHT22;5707;49.588;12.148;2023-01-01T08:29:46;8.80;99.90
11304;DHT22;5707;49.588;12.148;2023-01-01T08:32:12;8.90;99.90
11304;DHT22;5707;49.588;12.148;2023-01-01T08:34:37;9.10;99.90
11304;DHT22;5707;49.588;12.148;2023-01-01T08:37:03;9.20;99.90
11304;DHT22;5707;49.588;12.148;2023-01-01T08:39:29;9.30;99.90
11304;DHT22;5707;49.588;12.148;2023-01-01T08:41:55;9.40;99.90
11304;DHT22;5707;49.588;12.148;2023-01-01T08:44:22;9.50;99.90
11304;DHT22;5707;49.588;12.148;2023-01-01T08:46:47;9.60;99.90
11304;DHT22;5707;49.588;12.148;2023-01-01T08:49:13;9.70;99.90
11304;DHT22;5707;49.588;12.148;2023-01-01T08:51:38;9.70;99.90
11304;DHT22;5707;49.588;12.148;2023-01-01T08:54:05;9.80;99.90
11304;DHT22;5707;49.588;12.148;2023-01-01T08:56:30;9.90;99.90
11304;DHT22;5707;49.588;12.148;2023-01-01T08:58:56;9.90;99.90
11304;DHT22;5707;49.588;12.148;2023-01-01T09:01:22;10.00;99.90
11304;DHT22;5707;49.588;12.148;2023-01-01T09:03:50;10.10;99.90
11304;DHT22;5707;49.588;12.148;2023-01-01T09:06:16;10.20;99.90
11304;DHT22;5707;49.588;12.148;2023-01-01T09:08:41;10.30;99.90
11304;DHT22;5707;49.588;12.148;2023-01-01T09:11:14;10.40;99.90
11304;DHT22;5707;49.588;12.148;2023-01-01T09:13:41;10.50;99.90
11304;DHT22;5707;49.588;12.148;2023-01-01T09:16:07;10.70;99.90
11304;DHT22;5707;49.588;12.148;2023-01-01T09:18:32;10.80;99.90
11304;DHT22;5707;49.588;12.148;2023-01-01T09:20:58;10.90;99.90
11304;DHT22;5707;49.588;12.148;2023-01-01T09:23:23;11.10;99.90
11304;DHT22;5707;49.588;12.148;2023-01-01T09:25:49;11.10;99.90
11304;DHT22;5707;49.588;12.148;2023-01-01T09:28:15;11.20;99.90
11304;DHT22;5707;49.588;12.148;2023-01-01T09:30:40;11.30;99.90
11304;DHT22;5707;49.588;12.148;2023-01-01T09:33:06;11.40;99.90
11304;DHT22;5707;49.588;12.148;2023-01-01T09:35:31;11.50;99.90
11304;DHT22;5707;49.588;12.148;2023-01-01T09:37:57;11.60;99.90
11304;DHT22;5707;49.588;12.148;2023-01-01T09:40:27;11.70;99.90
11304;DHT22;5707;49.588;12.148;2023-01-01T09:43:29;11.70;99.90
11304;DHT22;5707;49.588;12.148;2023-01-01T09:46:03;11.80;99.90
11304;DHT22;5707;49.588;12.148;2023-01-01T09:48:31;11.80;99.90
11304;DHT22;5707;49.588;12.148;2023-01-01T09:50:59;11.80;99.90
11304;DHT22;5707;49.588;12.148;2023-01-01T09:53:40;11.70;99.90
11304;DHT22;5707;49.588;12.148;2023-01-01T09:56:14;11.70;99.90
11304;DHT22;5707;49.588;12.148;2023-01-01T09:58:42;11.70;99.90
11304;DHT22;5707;49.588;12.148;2023-01-01T10:04:32;11.60;99.90
11304;DHT22;5707;49.588;12.148;2023-01-01T10:12:39;11.70;99.90
11304;DHT22;5707;49.588;12.148;2023-01-01T10:15:17;11.90;99.90
11304;DHT22;5707;49.588;12.148;2023-01-01T10:17:50;11.90;99.90
11304;DHT22;5707;49.588;12.148;2023-01-01T10:20:30;12.00;99.90
11304;DHT22;5707;49.588;12.148;2023-01-01T10:23:02;12.00;99.90
11304;DHT22;5707;49.588;12.148;2023-01-01T10:25:32;12.00;99.90
11304;DHT22;5707;49.588;12.148;2023-01-01T10:28:03;12.10;99.90
11304;DHT22;5707;49.588;12.148;2023-01-01T10:30:31;12.10;99.90
11304;DHT22;5707;49.588;12.148;2023-01-01T10:32:57;12.20;99.90
11304;DHT22;5707;49.588;12.148;2023-01-01T10:35:40;12.30;99.90
11304;DHT22;5707;49.588;12.148;2023-01-01T10:38:06;12.30;99.90
11304;DHT22;5707;49.588;12.148;2023-01-01T10:40:32;12.40;99.90
11304;DHT22;5707;49.588;12.148;2023-01-01T10:42:59;12.50;99.90
11304;DHT22;5707;49.588;12.148;2023-01-01T10:45:42;12.50;99.90
11304;DHT22;5707;49.588;12.148;2023-01-01T10:51:05;12.60;99.90
11304;DHT22;5707;49.588;12.148;2023-01-01T10:53:39;12.70;99.90
11304;DHT22;5707;49.588;12.148;2023-01-01T10:58:44;12.90;99.90
11304;DHT22;5707;49.588;12.148;2023-01-01T11:01:22;12.90;99.90
11304;DHT22;5707;49.588;12.148;2023-01-01T11:06:37;13.00;99.90
11304;DHT22;5707;49.588;12.148;2023-01-01T11:09:26;13.00;99.90
11304;DHT22;5707;49.588;12.148;2023-01-01T11:11:59;13.00;99.90
11304;DHT22;5707;49.588;12.148;2023-01-01T11:14:32;13.00;99.90
11304;DHT22;5707;49.588;12.148;2023-01-01T11:17:01;13.00;99.90
11304;DHT22;5707;49.588;12.148;2023-01-01T11:19:30;13.00;99.90
11304;DHT22;5707;49.588;12.148;2023-01-01T11:21:57;13.10;99.90
11304;DHT22;5707;49.588;12.148;2023-01-01T11:24:25;13.10;99.90
11304;DHT22;5707;49.588;12.148;2023-01-01T11:26:51;13.20;99.90
11304;DHT22;5707;49.588;12.148;2023-01-01T11:29:27;13.20;99.90
11304;DHT22;5707;49.588;12.148;2023-01-01T11:31:53;13.30;99.90
11304;DHT22;5707;49.588;12.148;2023-01-01T11:39:54;13.40;99.90
11304;DHT22;5707;49.588;12.148;2023-01-01T11:44:51;13.60;99.90
11304;DHT22;5707;49.588;12.148;2023-01-01T11:50:24;13.90;99.90
11304;DHT22;5707;49.588;12.148;2023-01-01T11:52:52;13.90;99.90
11304;DHT22;5707;49.588;12.148;2023-01-01T12:00:42;13.90;99.90
11304;DHT22;5707;49.588;12.148;2023-01-01T12:08:25;14.00;99.90
11304;DHT22;5707;49.588;12.148;2023-01-01T12:11:18;14.00;99.90
11304;DHT22;5707;49.588;12.148;2023-01-01T12:13:53;13.90;99.90
11304;DHT22;5707;49.588;12.148;2023-01-01T12:16:26;13.90;99.90
11304;DHT22;5707;49.588;12.148;2023-01-01T12:19:03;13.80;99.90
11304;DHT22;5707;49.588;12.148;2023-01-01T12:21:30;13.80;99.90
11304;DHT22;5707;49.588;12.148;2023-01-01T12:23:58;13.80;99.90
11304;DHT22;5707;49.588;12.148;2023-01-01T12:26:51;13.70;99.90
11304;DHT22;5707;49.588;12.148;2023-01-01T12:44:08;13.90;99.90
11304;DHT22;5707;49.588;12.148;2023-01-01T12:52:34;14.00;99.90
11304;DHT22;5707;49.588;12.148;2023-01-01T12:55:24;14.00;99.90
11304;DHT22;5707;49.588;12.148;2023-01-01T12:58:05;14.00;99.90
11304;DHT22;5707;49.588;12.148;2023-01-01T13:00:35;14.00;99.90
11304;DHT22;5707;49.588;12.148;2023-01-01T13:03:18;14.00;99.90
11304;DHT22;5707;49.588;12.148;2023-01-01T13:05:49;14.00;99.90
11304;DHT22;5707;49.588;12.148;2023-01-01T13:08:17;13.90;99.90
11304;DHT22;5707;49.588;12.148;2023-01-01T13:10:45;13.90;99.90
11304;DHT22;5707;49.588;12.148;2023-01-01T13:13:12;13.90;99.90
11304;DHT22;5707;49.588;12.148;2023-01-01T13:34:30;13.90;99.90
11304;DHT22;5707;49.588;12.148;2023-01-01T13:45:25;13.60;99.90
11304;DHT22;5707;49.588;12.148;2023-01-01T13:56:47;13.20;99.90
11304;DHT22;5707;49.588;12.148;2023-01-01T14:04:51;12.80;99.90
11304;DHT22;5707;49.588;12.148;2023-01-01T14:07:28;12.80;99.90
11304;DHT22;5707;49.588;12.148;2023-01-01T14:10:28;12.70;99.90
11304;DHT22;5707;49.588;12.148;2023-01-01T14:15:33;12.60;99.90
11304;DHT22;5707;49.588;12.148;2023-01-01T14:18:04;12.60;99.90
11304;DHT22;5707;49.588;12.148;2023-01-01T14:20:35;12.60;99.90
11304;DHT22;5707;49.588;12.148;2023-01-01T14:23:08;12.60;99.90
11304;DHT22;5707;49.588;12.148;2023-01-01T14:25:34;12.60;99.90
11304;DHT22;5707;49.588;12.148;2023-01-01T14:28:01;12.50;99.90
11304;DHT22;5707;49.588;12.148;2023-01-01T14:30:30;12.40;99.90
11304;DHT22;5707;49.588;12.148;2023-01-01T14:33:00;12.30;99.90
11304;DHT22;5707;49.588;12.148;2023-01-01T14:35:27;12.20;99.90
11304;DHT22;5707;49.588;12.148;2023-01-01T14:37:53;11.90;99.90
11304;DHT22;5707;49.588;12.148;2023-01-01T14:40:21;11.70;99.90
11304;DHT22;5707;49.588;12.148;2023-01-01T14:43:00;11.60;99.90
11304;DHT22;5707;49.588;12.148;2023-01-01T14:45:29;11.40;99.90
11304;DHT22;5707;49.588;12.148;2023-01-01T14:47:56;11.30;99.90
11304;DHT22;5707;49.588;12.148;2023-01-01T14:50:30;11.20;99.90
11304;DHT22;5707;49.588;12.148;2023-01-01T14:53:06;11.00;99.90
11304;DHT22;5707;49.588;12.148;2023-01-01T14:55:41;10.90;99.90
11304;DHT22;5707;49.588;12.148;2023-01-01T14:58:18;10.70;99.90
11304;DHT22;5707;49.588;12.148;2023-01-01T15:00:45;10.50;99.90
11304;DHT22;5707;49.588;12.148;2023-01-01T15:03:13;10.30;99.90
11304;DHT22;5707;49.588;12.148;2023-01-01T15:05:40;10.10;99.90
11304;DHT22;5707;49.588;12.148;2023-01-01T15:08:17;10.00;99.90
11304;DHT22;5707;49.588;12.148;2023-01-01T15:10:43;9.90;99.90
11304;DHT22;5707;49.588;12.148;2023-01-01T15:13:16;9.70;99.90
11304;DHT22;5707;49.588;12.148;2023-01-01T15:15:44;9.60;99.90
11304;DHT22;5707;49.588;12.148;2023-01-01T15:18:39;9.50;99.90
11304;DHT22;5707;49.588;12.148;2023-01-01T15:24:00;9.30;99.90
11304;DHT22;5707;49.588;12.148;2023-01-01T15:26:28;9.30;99.90
11304;DHT22;5707;49.588;12.148;2023-01-01T15:28:56;9.20;99.90
11304;DHT22;5707;49.588;12.148;2023-01-01T15:31:22;9.10;99.90
11304;DHT22;5707;49.588;12.148;2023-01-01T15:33:57;9.10;99.90
11304;DHT22;5707;49.588;12.148;2023-01-01T15:36:23;8.90;99.90
11304;DHT22;5707;49.588;12.148;2023-01-01T15:38:49;8.80;99.90
11304;DHT22;5707;49.588;12.148;2023-01-01T15:41:39;8.70;99.90
11304;DHT22;5707;49.588;12.148;2023-01-01T15:44:27;8.70;99.90
11304;DHT22;5707;49.588;12.148;2023-01-01T15:47:03;8.80;99.90
11304;DHT22;5707;49.588;12.148;2023-01-01T15:49:29;9.00;99.90
11304;DHT22;5707;49.588;12.148;2023-01-01T15:52:02;9.30;99.90
11304;DHT22;5707;49.588;12.148;2023-01-01T15:54:29;9.40;99.90
11304;DHT22;5707;49.588;12.148;2023-01-01T15:56:55;9.60;99.90
11304;DHT22;5707;49.588;12.148;2023-01-01T16:01:49;10.00;99.90
11304;DHT22;5707;49.588;12.148;2023-01-01T16:04:24;10.10;99.90
11304;DHT22;5707;49.588;12.148;2023-01-01T16:06:52;10.20;99.90
11304;DHT22;5707;49.588;12.148;2023-01-01T16:09:19;10.30;99.90
11304;DHT22;5707;49.588;12.148;2023-01-01T16:11:49;10.30;99.90
11304;DHT22;5707;49.588;12.148;2023-01-01T16:14:15;10.40;99.90
11304;DHT22;5707;49.588;12.148;2023-01-01T16:16:45;10.40;99.90
11304;DHT22;5707;49.588;12.148;2023-01-01T16:19:16;10.40;99.90
11304;DHT22;5707;49.588;12.148;2023-01-01T16:21:42;10.20;99.90
11304;DHT22;5707;49.588;12.148;2023-01-01T16:24:14;10.10;99.90
11304;DHT22;5707;49.588;12.148;2023-01-01T16:26:41;9.80;99.90
11304;DHT22;5707;49.588;12.148;2023-01-01T16:29:06;9.70;99.90
11304;DHT22;5707;49.588;12.148;2023-01-01T16:31:32;9.60;99.90
11304;DHT22;5707;49.588;12.148;2023-01-01T16:33:58;9.50;99.90
11304;DHT22;5707;49.588;12.148;2023-01-01T16:36:25;9.40;99.90
11304;DHT22;5707;49.588;12.148;2023-01-01T16:38:54;9.40;99.90
11304;DHT22;5707;49.588;12.148;2023-01-01T16:41:20;9.30;99.90
11304;DHT22;5707;49.588;12.148;2023-01-01T16:43:47;9.30;99.90
11304;DHT22;5707;49.588;12.148;2023-01-01T16:46:13;9.10;99.90
11304;DHT22;5707;49.588;12.148;2023-01-01T16:48:40;9.10;99.90
11304;DHT22;5707;49.588;12.148;2023-01-01T16:51:09;9.00;99.90
11304;DHT22;5707;49.588;12.148;2023-01-01T16:53:40;9.00;99.90
11304;DHT22;5707;49.588;12.148;2023-01-01T16:56:06;8.90;99.90
11304;DHT22;5707;49.588;12.148;2023-01-01T16:58:32;8.90;99.90
11304;DHT22;5707;49.588;12.148;2023-01-01T17:00:59;9.00;99.90
11304;DHT22;5707;49.588;12.148;2023-01-01T17:03:25;9.00;99.90
11304;DHT22;5707;49.588;12.148;2023-01-01T17:05:51;9.10;99.90
11304;DHT22;5707;49.588;12.148;2023-01-01T17:08:16;9.10;99.90
11304;DHT22;5707;49.588;12.148;2023-01-01T17:10:42;9.10;99.90
11304;DHT22;5707;49.588;12.148;2023-01-01T17:13:08;9.00;99.90
11304;DHT22;5707;49.588;12.148;2023-01-01T17:15:33;8.90;99.90
11304;DHT22;5707;49.588;12.148;2023-01-01T17:17:59;8.90;99.90
11304;DHT22;5707;49.588;12.148;2023-01-01T17:20:25;8.80;99.90
11304;DHT22;5707;49.588;12.148;2023-01-01T17:22:51;8.80;99.90
11304;DHT22;5707;49.588;12.148;2023-01-01T17:25:17;8.80;99.90
11304;DHT22;5707;49.588;12.148;2023-01-01T17:27:42;8.80;99.90
11304;DHT22;5707;49.588;12.148;2023-01-01T17:30:10;8.70;99.90
11304;DHT22;5707;49.588;12.148;2023-01-01T17:32:36;8.70;99.90
11304;DHT22;5707;49.588;12.148;2023-01-01T17:35:05;8.70;99.90
11304;DHT22;5707;49.588;12.148;2023-01-01T17:37:31;8.70;99.90
11304;DHT22;5707;49.588;12.148;2023-01-01T17:39:59;8.70;99.90
11304;DHT22;5707;49.588;12.148;2023-01-01T17:42:25;8.50;99.90
11304;DHT22;5707;49.588;12.148;2023-01-01T17:44:51;8.40;99.90
11304;DHT22;5707;49.588;12.148;2023-01-01T17:47:16;8.10;99.90
11304;DHT22;5707;49.588;12.148;2023-01-01T17:49:42;8.00;99.90
11304;DHT22;5707;49.588;12.148;2023-01-01T17:52:08;8.00;99.90
11304;DHT22;5707;49.588;12.148;2023-01-01T17:54:34;7.80;99.90
11304;DHT22;5707;49.588;12.148;2023-01-01T17:57:00;7.60;99.90
11304;DHT22;5707;49.588;12.148;2023-01-01T17:59:31;7.40;99.90
11304;DHT22;5707;49.588;12.148;2023-01-01T18:01:58;7.30;99.90
11304;DHT22;5707;49.588;12.148;2023-01-01T18:04:24;7.20;99.90
11304;DHT22;5707;49.588;12.148;2023-01-01T18:06:49;7.20;99.90